Pacifica, CA (94044)

7:08 AM PDT on April 01, 2015 (GMT -0700)
Sharp Park | | Change Station
CLOSE
Current Station
Personal Weather Station
Location: Pacifica, CA
Elevation: 189 ft
Nearby Weather Stations

Elev 189 ft 37.64 °N, 122.49 °W | Updated 1 minute ago

Clear
Clear
48.2 °F
Feels Like 48 °F
N
1.0
Wind Variable Wind from West
Gusts 4.0 mph

Today
High -- | Low -- °F
--% Chance of Precip.
Yesterday
High -- | Low -- °F
Precip. -- in
6:55 AM 7:32 PM
Waxing Gibbous, 92% visible
Pressure 30.18 in
Visibility 10.0 miles
Clouds Few 18000 ft
Windchill 48 °F
Dew Point 43 °F
Humidity 83%
Rainfall 0.00 in
Snow Depth Not available.
UV 0 out of 12
Pollen 9.00 out of 12
Air Quality Not available.
Flu Activity Not available.
METAR KSFO 011356Z 27007KT 10SM FEW180 10/06 A3018 RMK AO2 SLP220 T01000056 $

More Conditions Fewer Conditions

Pressure 30.18 in
Visibility 10.0 miles
Clouds Few 18000 ft
Windchill 48 °F
Dew Point 43 °F
Humidity 83%
Rainfall 0.00 in
Snow Depth Not available.
UV 0 out of 12
Pollen 9.00 out of 12
Air Quality Not available.
Flu Activity Not available.
METAR KSFO 011356Z 27007KT 10SM FEW180 10/06 A3018 RMK AO2 SLP220 T01000056 $

More Conditions Fewer Conditions

10-Day Weather Forecast

Almanac

Astronomy

Apr. 01, 2015 Rise Set
Actual Time
Civil Twilight
Nautical Twilight
Astronomical Twilight
Moon
Length of Visible Light
Length of Day
Tomorrow will be .
, % of the Moon is Illuminated

Today's Extremes

State Highs State Lows

Community

WunderPhotos

Upload Photos

1,809,959 photos uploaded!

WunderBlogs® & News

Nearby

Air Quality

  Air Quality AQ Index Pollutant
Not available.

Snow Depth

Station Depth Elevation

Earthquake Activity

City Distance Mag. Time & Date
Minimum magnitude displayed is 2.5.

Coastal Water Temperatures

Place Temperature

Stations

Nearby Weather Stations

Station Location Temp. Windchill Dew Point Humidity Wind Precip. Elev Updated Type